Time;durP1;ratioP1;P1;durP2;ratioP2;P2;SDS_P1;SDS_P2;PMS_P1;PMS_P2;Temp;Humidity;BMP_temperature;BMP_pressure;BME280_temperature;BME280_humidity;BME280_pressure;Samples;Min_cycle;Max_cycle;Signal;HPM_P1;HPM_P2
2021/08/15 00:03:05;;;;;;;;;;;;;;;19.77;59.91;100058.41;126864;1087;102998;-80
2021/08/15 00:05:55;;;;;;;;;;;;;;;19.77;59.93;100049.63;126913;1089;102852;-80
2021/08/15 00:08:42;;;;;;;;;;;;;;;19.77;59.75;100047.82;126768;1090;102859;-80
2021/08/15 00:11:32;;;;;;;;;;;;;;;19.78;59.70;100046.86;126896;1088;102893;-80
2021/08/15 00:14:20;;;;;;;;;;;;;;;19.77;60.15;100047.82;126725;1090;102940;-80
2021/08/15 00:17:07;;;;;;;;;;;;;;;19.76;60.36;100051.42;126900;1088;103001;-80
2021/08/15 00:19:55;;;;;;;;;;;;;;;19.76;60.12;100048.78;126729;1088;102940;-80
2021/08/15 00:22:43;;;;;;;;;;;;;;;19.78;59.95;100056.61;126871;1088;101818;-80
2021/08/15 00:25:30;;;;;;;;;;;;;;;19.78;60.22;100052.16;126863;1088;102129;-80
2021/08/15 00:28:18;;;;;;;;;;;;;;;19.77;60.05;100053.11;126838;1090;103128;-80
2021/08/15 00:31:06;;;;;;;;;;;;;;;19.75;59.81;100049.74;126850;1089;103559;-80
2021/08/15 00:33:54;;;;;;;;;;;;;;;19.74;59.92;100055.11;126789;1089;102850;-80
2021/08/15 00:36:41;;;;;;;;;;;;;;;19.70;59.69;100051.02;126935;1090;101681;-80
2021/08/15 00:39:29;;;;;;;;;;;;;;;19.67;59.75;100046.80;126791;1090;102937;-80
2021/08/15 00:42:17;;;;;;;;;;;;;;;19.64;59.93;100041.73;126860;1089;102953;-80
2021/08/15 00:45:05;;;;;;;;;;;;;;;19.60;59.98;100034.98;126706;1089;103462;-80
2021/08/15 00:47:52;;;;;;;;;;;;;;;19.58;59.89;100037.73;126759;1089;103221;-80
2021/08/15 00:50:41;;;;;;;;;;;;;;;19.54;59.67;100038.05;126772;1088;102866;-80
2021/08/15 00:53:31;;;;;;;;;;;;;;;19.53;59.94;100036.33;126893;1089;102897;-80
2021/08/15 00:56:20;;;;;;;;;;;;;;;19.50;59.89;100028.63;126727;1090;102848;-80
2021/08/15 00:59:08;;;;;;;;;;;;;;;19.51;59.81;100033.80;126813;1090;102906;-80
2021/08/15 01:01:56;;;;;;;;;;;;;;;19.48;60.08;100030.53;126783;1090;102875;-80
2021/08/15 01:04:45;;;;;;;;;;;;;;;19.45;59.68;100025.47;126701;1090;102993;-79
2021/08/15 01:07:33;;;;;;;;;;;;;;;19.42;59.61;100028.34;126821;1089;102933;-79
2021/08/15 01:10:21;;;;;;;;;;;;;;;19.41;59.29;100031.95;126652;1089;102891;-79
2021/08/15 01:13:10;;;;;;;;;;;;;;;19.39;59.20;100028.54;126827;1090;102932;-80
2021/08/15 01:16:10;;;;;;;;;;;;;;;19.36;59.77;100029.61;126742;1090;102923;-80
2021/08/15 01:18:58;;;;;;;;;;;;;;;19.32;60.29;100033.44;126802;1089;102841;-78
2021/08/15 01:21:49;;;;;;;;;;;;;;;19.27;59.98;100032.93;126666;1089;102008;-78
2021/08/15 01:24:37;;;;;;;;;;;;;;;19.23;59.51;100029.67;126794;1089;102997;-79
2021/08/15 01:27:44;;;;;;;;;;;;;;;19.22;59.46;100027.14;126738;1089;102897;-79
2021/08/15 01:30:31;;;;;;;;;;;;;;;19.21;58.89;100026.29;126837;1090;102869;-79
2021/08/15 01:33:23;;;;;;;;;;;;;;;19.23;58.86;100027.02;126735;1089;103393;-79
2021/08/15 01:36:15;;;;;;;;;;;;;;;19.25;58.39;100025.11;126748;1087;101799;-79
2021/08/15 01:39:03;;;;;;;;;;;;;;;19.25;58.23;100019.82;126743;1087;102933;-79
2021/08/15 01:41:51;;;;;;;;;;;;;;;19.24;58.05;100018.13;126795;1090;102728;-79
2021/08/15 01:44:38;;;;;;;;;;;;;;;19.25;57.69;100024.27;126749;1090;102937;-79
2021/08/15 01:47:28;;;;;;;;;;;;;;;19.28;57.41;100019.59;126882;1088;102967;-80
2021/08/15 01:50:16;;;;;;;;;;;;;;;19.28;57.40;100010.82;126822;1090;102873;-80
2021/08/15 01:53:11;;;;;;;;;;;;;;;19.26;57.33;100021.52;126711;1087;102846;-80
2021/08/15 01:55:58;;;;;;;;;;;;;;;19.23;57.52;100015.60;126828;1090;102857;-80
2021/08/15 01:58:46;;;;;;;;;;;;;;;19.18;57.93;100012.42;126726;1088;102850;-80
2021/08/15 02:01:33;;;;;;;;;;;;;;;19.12;57.95;100020.80;126837;1088;103077;-80
2021/08/15 02:04:24;;;;;;;;;;;;;;;19.05;58.37;100017.76;126735;1089;102840;-79
2021/08/15 02:07:12;;;;;;;;;;;;;;;18.98;58.55;100014.69;126762;1090;102933;-79
2021/08/15 02:09:59;;;;;;;;;;;;;;;18.92;58.59;100001.06;126718;1089;102909;-79
2021/08/15 02:12:47;;;;;;;;;;;;;;;18.86;58.82;100004.16;126840;1090;102974;-79
2021/08/15 02:15:35;;;;;;;;;;;;;;;18.81;59.04;99998.32;126723;1090;102964;-79
2021/08/15 02:18:23;;;;;;;;;;;;;;;18.78;59.14;100003.83;126790;1090;102887;-79
2021/08/15 02:21:13;;;;;;;;;;;;;;;18.73;59.44;100001.52;126681;1090;102997;-79
2021/08/15 02:24:01;;;;;;;;;;;;;;;18.71;59.45;99995.50;126794;1089;102850;-80
2021/08/15 02:26:48;;;;;;;;;;;;;;;18.70;59.77;99997.30;126713;1090;102856;-80
2021/08/15 02:29:36;;;;;;;;;;;;;;;18.70;59.75;99999.09;126807;1087;102941;-80
2021/08/15 02:32:24;;;;;;;;;;;;;;;18.67;59.76;99996.64;126826;1090;103140;-79
2021/08/15 02:35:13;;;;;;;;;;;;;;;18.63;59.91;100009.22;126619;1090;102763;-80
2021/08/15 02:38:00;;;;;;;;;;;;;;;18.60;60.04;100004.13;126840;1090;102686;-80
2021/08/15 02:40:48;;;;;;;;;;;;;;;18.55;60.41;100003.60;126727;1088;102885;-79
2021/08/15 02:43:36;;;;;;;;;;;;;;;18.50;60.44;100003.08;126842;1089;103024;-79
2021/08/15 02:46:23;;;;;;;;;;;;;;;18.49;60.51;100005.80;126737;1087;102878;-79
2021/08/15 02:49:11;;;;;;;;;;;;;;;18.49;60.52;100000.52;126868;1090;102889;-80
2021/08/15 02:51:58;;;;;;;;;;;;;;;18.54;60.62;100001.91;126717;1088;103515;-80
2021/08/15 02:54:47;;;;;;;;;;;;;;;18.58;60.51;100000.74;126800;1088;102864;-79
2021/08/15 02:57:35;;;;;;;;;;;;;;;18.62;60.51;99998.73;126735;1090;102901;-79
2021/08/15 03:00:22;;;;;;;;;;;;;;;18.64;60.41;99986.29;126742;1089;102421;-79
2021/08/15 03:03:10;;;;;;;;;;;;;;;18.66;60.36;99994.95;126738;1090;102872;-79
2021/08/15 03:05:57;;;;;;;;;;;;;;;18.65;60.25;99991.46;126805;1090;102916;-79
2021/08/15 03:08:46;;;;;;;;;;;;;;;18.66;60.15;99993.15;126859;1088;102949;-79
2021/08/15 03:11:34;;;;;;;;;;;;;;;18.69;60.67;99995.61;126812;1090;102988;-79
2021/08/15 03:14:22;;;;;;;;;;;;;;;18.73;60.25;99996.23;126832;1090;103332;-79
2021/08/15 03:17:10;;;;;;;;;;;;;;;18.76;60.15;99982.80;126507;1090;102877;-79
2021/08/15 03:19:58;;;;;;;;;;;;;;;18.80;60.01;99986.91;126894;1089;104867;-79
2021/08/15 03:22:45;;;;;;;;;;;;;;;18.87;59.71;99987.34;126690;1090;102879;-79
2021/08/15 03:25:34;;;;;;;;;;;;;;;18.93;59.41;99992.19;126799;1090;103380;-79
2021/08/15 03:28:22;;;;;;;;;;;;;;;18.98;59.62;99990.89;126760;1087;102916;-79
2021/08/15 03:31:09;;;;;;;;;;;;;;;18.98;59.66;99982.13;126640;1090;102940;-79
2021/08/15 03:33:57;;;;;;;;;;;;;;;18.96;59.72;99981.39;126729;1087;102870;-79
2021/08/15 03:36:48;;;;;;;;;;;;;;;18.92;59.96;99979.92;126822;1090;102879;-79
2021/08/15 03:39:36;;;;;;;;;;;;;;;18.82;59.94;99978.88;126710;1090;102896;-79
2021/08/15 03:42:23;;;;;;;;;;;;;;;18.76;60.06;99972.23;126822;1090;102991;-78
2021/08/15 03:45:11;;;;;;;;;;;;;;;18.75;60.19;99980.27;126779;1089;102827;-79
2021/08/15 03:47:58;;;;;;;;;;;;;;;18.76;60.24;99981.95;126802;1089;103262;-79
2021/08/15 03:50:46;;;;;;;;;;;;;;;18.79;60.26;99981.73;126779;1089;102892;-79
2021/08/15 03:53:33;;;;;;;;;;;;;;;18.84;60.08;99982.25;126730;1090;101723;-79
2021/08/15 03:56:21;;;;;;;;;;;;;;;18.89;60.31;99982.80;126794;1089;102893;-79
2021/08/15 03:59:09;;;;;;;;;;;;;;;18.93;60.05;99978.97;126681;1087;102846;-80
2021/08/15 04:01:56;;;;;;;;;;;;;;;18.98;59.96;99974.19;126885;1090;102956;-79
2021/08/15 04:04:44;;;;;;;;;;;;;;;19.00;60.14;99977.56;126534;1089;102871;-79
2021/08/15 04:07:31;;;;;;;;;;;;;;;19.03;59.96;99961.52;126678;1090;102919;-79
2021/08/15 04:10:18;;;;;;;;;;;;;;;19.06;60.00;99961.30;126735;1088;101772;-79
2021/08/15 04:13:06;;;;;;;;;;;;;;;19.09;59.95;99955.78;126736;1090;102873;-79
2021/08/15 04:15:53;;;;;;;;;;;;;;;19.12;59.86;99955.55;126774;1089;102853;-79
2021/08/15 04:18:41;;;;;;;;;;;;;;;19.16;60.00;99950.89;126810;1090;103168;-79
2021/08/15 04:21:28;;;;;;;;;;;;;;;19.20;60.03;99952.34;126848;1089;102857;-80
2021/08/15 04:24:16;;;;;;;;;;;;;;;19.24;59.99;99952.03;126733;1088;103007;-80
2021/08/15 04:27:04;;;;;;;;;;;;;;;19.29;59.93;99949.89;126806;1088;102879;-80
2021/08/15 04:29:52;;;;;;;;;;;;;;;19.35;59.64;99951.23;126672;1089;103019;-80
2021/08/15 04:32:40;;;;;;;;;;;;;;;19.45;59.75;99949.62;126800;1088;102857;-80
2021/08/15 04:35:28;;;;;;;;;;;;;;;19.55;59.75;99939.22;126715;1090;102870;-79
2021/08/15 04:38:16;;;;;;;;;;;;;;;19.65;59.61;99952.63;126796;1087;102936;-79
2021/08/15 04:41:04;;;;;;;;;;;;;;;19.72;59.48;99952.03;126703;1090;102869;-80
2021/08/15 04:43:51;;;;;;;;;;;;;;;19.76;59.29;99958.81;126836;1089;103449;-80
2021/08/15 04:46:39;;;;;;;;;;;;;;;19.98;59.53;99954.55;126756;1088;102895;-79
2021/08/15 04:49:27;;;;;;;;;;;;;;;20.09;59.41;99949.26;126857;1090;101814;-79
2021/08/15 04:52:15;;;;;;;;;;;;;;;20.47;59.14;99947.21;126730;1090;102998;-79
2021/08/15 04:55:02;;;;;;;;;;;;;;;21.05;58.14;99937.29;126768;1088;102930;-79
2021/08/15 04:57:50;;;;;;;;;;;;;;;21.98;56.63;99948.19;126785;1089;102854;-80
2021/08/15 05:00:38;;;;;;;;;;;;;;;22.14;55.70;99947.77;126706;1090;102914;-80
2021/08/15 05:03:26;;;;;;;;;;;;;;;23.24;54.84;99946.14;126854;1090;102933;-80
2021/08/15 05:06:14;;;;;;;;;;;;;;;23.80;53.36;99951.66;126744;1090;102974;-79
2021/08/15 05:09:01;;;;;;;;;;;;;;;23.61;52.74;99935.70;126829;1090;102846;-79
2021/08/15 05:11:50;;;;;;;;;;;;;;;23.29;52.91;99940.40;126706;1088;102991;-79
2021/08/15 05:14:38;;;;;;;;;;;;;;;24.39;52.62;99936.44;126843;1088;102869;-79
2021/08/15 05:17:25;;;;;;;;;;;;;;;25.66;50.22;99927.58;126797;1088;103348;-80
2021/08/15 05:20:14;;;;;;;;;;;;;;;25.68;49.45;99936.34;126801;1089;102385;-80
2021/08/15 05:23:02;;;;;;;;;;;;;;;25.40;48.75;99948.04;126702;1089;103389;-80
2021/08/15 05:25:49;;;;;;;;;;;;;;;25.35;48.48;99936.98;126823;1089;102858;-80
2021/08/15 05:28:36;;;;;;;;;;;;;;;24.98;48.77;99937.89;126753;1089;102868;-79
2021/08/15 05:31:23;;;;;;;;;;;;;;;24.50;48.91;99933.61;126845;1090;103051;-79
2021/08/15 05:34:12;;;;;;;;;;;;;;;24.09;49.57;99942.81;126863;1089;102868;-80
2021/08/15 05:37:00;;;;;;;;;;;;;;;23.92;50.49;99933.72;126796;1090;102923;-80
2021/08/15 05:39:47;;;;;;;;;;;;;;;25.00;50.26;99920.77;126828;1089;102933;-80
2021/08/15 05:42:35;;;;;;;;;;;;;;;26.07;48.94;99925.28;126732;1090;102976;-80
2021/08/15 05:45:23;;;;;;;;;;;;;;;28.04;47.11;99923.95;126855;1089;102995;-80
2021/08/15 05:48:11;;;;;;;;;;;;;;;29.96;44.56;99920.66;126742;1090;102961;-80
2021/08/15 05:50:58;;;;;;;;;;;;;;;31.78;42.44;99918.09;126780;1088;102890;-80
2021/08/15 05:53:46;;;;;;;;;;;;;;;33.32;39.34;99906.09;126727;1089;103097;-81
2021/08/15 05:56:36;;;;;;;;;;;;;;;34.46;38.07;99915.89;126877;1090;102865;-80
2021/08/15 05:59:24;;;;;;;;;;;;;;;35.66;35.85;99908.87;126824;1090;102890;-80
2021/08/15 06:02:11;;;;;;;;;;;;;;;36.50;34.24;99913.77;126857;1087;102875;-80
2021/08/15 06:04:59;;;;;;;;;;;;;;;37.17;32.65;99903.74;126710;1090;102862;-78
2021/08/15 06:07:46;;;;;;;;;;;;;;;37.71;31.15;99910.05;126796;1087;102955;-78
2021/08/15 06:10:34;;;;;;;;;;;;;;;38.29;30.58;99905.74;126793;1088;103014;-78
2021/08/15 06:13:21;;;;;;;;;;;;;;;39.04;29.94;99897.50;126684;1089;100504;-78
2021/08/15 06:16:08;;;;;;;;;;;;;;;39.66;28.95;99904.91;126794;1087;102868;-78
2021/08/15 06:18:56;;;;;;;;;;;;;;;40.10;27.59;99909.47;126693;1087;102970;-78
2021/08/15 06:21:45;;;;;;;;;;;;;;;40.11;27.22;99919.31;126845;1089;102934;-80
2021/08/15 06:24:32;;;;;;;;;;;;;;;40.61;26.74;99912.93;126758;1087;102895;-79
2021/08/15 06:27:19;;;;;;;;;;;;;;;40.51;25.96;99922.89;126890;1090;102924;-79
2021/08/15 06:30:07;;;;;;;;;;;;;;;39.05;26.55;99917.41;126768;1090;102903;-79
2021/08/15 06:32:55;;;;;;;;;;;;;;;37.76;27.39;99918.37;126789;1088;102939;-79
2021/08/15 06:35:43;;;;;;;;;;;;;;;37.04;27.92;99922.95;126770;1088;103165;-79
2021/08/15 06:38:31;;;;;;;;;;;;;;;36.12;28.60;99921.25;126783;1087;102765;-79
2021/08/15 06:41:18;;;;;;;;;;;;;;;36.37;29.66;99929.37;126751;1090;102933;-79
2021/08/15 06:44:05;;;;;;;;;;;;;;;37.39;28.87;99923.11;126826;1087;102852;-79
2021/08/15 06:46:53;;;;;;;;;;;;;;;38.49;28.30;99921.70;126864;1087;102848;-79
2021/08/15 06:49:40;;;;;;;;;;;;;;;39.70;27.38;99922.47;126778;1090;102998;-79
2021/08/15 06:52:28;;;;;;;;;;;;;;;40.51;26.05;99917.42;126873;1090;102849;-79
2021/08/15 06:55:15;;;;;;;;;;;;;;;41.22;25.30;99921.84;126757;1089;102928;-79
2021/08/15 06:58:03;;;;;;;;;;;;;;;41.59;24.94;99923.85;126842;1090;103000;-79
2021/08/15 07:00:50;;;;;;;;;;;;;;;42.09;24.82;99926.22;126741;1090;102946;-80
2021/08/15 07:03:38;;;;;;;;;;;;;;;42.66;23.78;99919.13;126855;1088;102872;-80
2021/08/15 07:06:27;;;;;;;;;;;;;;;43.14;24.14;99923.44;126748;1090;102842;-80
2021/08/15 07:09:14;;;;;;;;;;;;;;;42.75;23.70;99932.08;126917;1090;102911;-80
2021/08/15 07:12:02;;;;;;;;;;;;;;;42.06;23.49;99923.16;126766;1087;102879;-80
2021/08/15 07:14:49;;;;;;;;;;;;;;;40.47;24.07;99928.05;126823;1088;103019;-80
2021/08/15 07:17:40;;;;;;;;;;;;;;;39.62;24.87;99925.59;126823;1087;102930;-80
2021/08/15 07:20:28;;;;;;;;;;;;;;;39.35;25.75;99923.48;126892;1088;103358;-80
2021/08/15 07:23:16;;;;;;;;;;;;;;;39.51;25.80;99925.41;126909;1090;102948;-80
2021/08/15 07:26:04;;;;;;;;;;;;;;;39.41;26.16;99929.84;126990;1087;100908;-80
2021/08/15 07:28:51;;;;;;;;;;;;;;;39.93;25.91;99925.02;126934;1088;102945;-80
2021/08/15 07:31:39;;;;;;;;;;;;;;;40.42;25.42;99925.25;126804;1088;102655;-80
2021/08/15 07:34:26;;;;;;;;;;;;;;;40.96;25.16;99931.70;127023;1089;103013;-80
2021/08/15 07:37:14;;;;;;;;;;;;;;;41.23;25.11;99930.88;126846;1086;102849;-80
2021/08/15 07:40:01;;;;;;;;;;;;;;;41.26;24.64;99931.20;126924;1090;102869;-80
2021/08/15 07:42:53;;;;;;;;;;;;;;;41.38;24.21;99927.50;126769;1090;102889;-81
2021/08/15 07:45:42;;;;;;;;;;;;;;;40.99;24.24;99933.09;126918;1090;102891;-80
2021/08/15 07:48:30;;;;;;;;;;;;;;;40.30;24.17;99929.97;126784;1090;102910;-80
2021/08/15 07:51:18;;;;;;;;;;;;;;;39.43;24.87;99933.97;126927;1090;102795;-80
2021/08/15 07:54:05;;;;;;;;;;;;;;;38.64;25.29;99935.69;126851;1090;102843;-80
2021/08/15 07:56:53;;;;;;;;;;;;;;;37.64;25.84;99931.09;126780;1088;102870;-80
2021/08/15 07:59:40;;;;;;;;;;;;;;;36.45;26.55;99940.78;126888;1090;102879;-79
2021/08/15 08:02:28;;;;;;;;;;;;;;;35.41;27.80;99938.68;126706;1089;102953;-79
2021/08/15 08:05:15;;;;;;;;;;;;;;;34.61;28.88;99945.44;126813;1088;102964;-79
2021/08/15 08:08:03;;;;;;;;;;;;;;;34.34;30.11;99942.77;126691;1089;103013;-79
2021/08/15 08:10:53;;;;;;;;;;;;;;;33.92;30.13;99938.63;126805;1087;102847;-80
2021/08/15 08:13:41;;;;;;;;;;;;;;;33.38;31.32;99934.17;126731;1090;102896;-81
2021/08/15 08:16:29;;;;;;;;;;;;;;;33.21;31.86;99935.55;126852;1088;102988;-80
2021/08/15 08:19:17;;;;;;;;;;;;;;;33.48;32.21;99933.79;126842;1090;102975;-80
2021/08/15 08:22:04;;;;;;;;;;;;;;;34.51;31.39;99935.06;126930;1090;103016;-81
2021/08/15 08:24:52;;;;;;;;;;;;;;;35.79;29.95;99935.07;126759;1087;103252;-80
2021/08/15 08:27:39;;;;;;;;;;;;;;;36.92;28.93;99927.49;126862;1089;102854;-80
2021/08/15 08:30:27;;;;;;;;;;;;;;;37.88;27.21;99915.64;126853;1087;102850;-80
2021/08/15 08:33:14;;;;;;;;;;;;;;;38.72;26.25;99924.39;126839;1090;102844;-77
2021/08/15 08:36:02;;;;;;;;;;;;;;;39.31;25.57;99925.02;126809;1090;104671;-80
2021/08/15 08:38:50;;;;;;;;;;;;;;;39.84;24.60;99923.77;126763;1090;102646;-78
2021/08/15 08:41:41;;;;;;;;;;;;;;;40.25;24.08;99935.36;126778;1090;102850;-79
2021/08/15 08:44:30;;;;;;;;;;;;;;;40.80;23.87;99921.63;126699;1089;102930;-79
2021/08/15 08:47:17;;;;;;;;;;;;;;;41.23;22.28;99923.48;126841;1090;102889;-80
2021/08/15 08:50:05;;;;;;;;;;;;;;;41.45;21.52;99922.63;126708;1090;102855;-79
2021/08/15 08:52:53;;;;;;;;;;;;;;;41.42;20.94;99918.50;126786;1087;103090;-80
2021/08/15 08:55:41;;;;;;;;;;;;;;;41.62;20.71;99910.46;126761;1090;103361;-80
2021/08/15 08:58:29;;;;;;;;;;;;;;;41.28;20.98;99920.00;126839;1089;102887;-80
2021/08/15 09:01:17;;;;;;;;;;;;;;;40.36;21.63;99923.48;126833;1090;102869;-79
2021/08/15 09:04:05;;;;;;;;;;;;;;;39.90;21.91;99920.06;126906;1090;102870;-79
2021/08/15 09:06:53;;;;;;;;;;;;;;;39.93;22.14;99922.28;126795;1090;102937;-80
2021/08/15 09:09:50;;;;;;;;;;;;;;;40.00;21.56;99922.96;126916;1087;102988;-79
2021/08/15 09:12:50;;;;;;;;;;;;;;;40.03;22.06;99908.80;126716;1090;102905;-79
2021/08/15 09:15:38;;;;;;;;;;;;;;;40.12;21.59;99912.78;126804;1090;102955;-78
2021/08/15 09:18:30;;;;;;;;;;;;;;;39.86;21.19;99916.19;126855;1089;103250;-78
2021/08/15 09:21:29;;;;;;;;;;;;;;;39.31;21.88;99907.82;126787;1089;103041;-79
2021/08/15 09:24:16;;;;;;;;;;;;;;;39.18;22.03;99908.98;126781;1090;103342;-79
2021/08/15 09:27:22;;;;;;;;;;;;;;;39.13;22.09;99900.67;126695;1087;102956;-79
2021/08/15 09:30:11;;;;;;;;;;;;;;;39.16;21.86;99900.22;126806;1089;102865;-79
2021/08/15 09:32:59;;;;;;;;;;;;;;;39.37;21.59;99901.40;126745;1090;103485;-78
2021/08/15 09:35:51;;;;;;;;;;;;;;;39.44;21.81;99891.97;126755;1089;104066;-78
2021/08/15 09:38:43;;;;;;;;;;;;;;;39.33;21.96;99894.79;126681;1090;103143;-78
2021/08/15 09:41:36;;;;;;;;;;;;;;;39.50;21.89;99892.88;126631;1088;103010;-79
2021/08/15 09:44:28;;;;;;;;;;;;;;;39.08;21.75;99897.86;126736;1089;102847;-79
2021/08/15 09:47:24;;;;;;;;;;;;;;;38.47;22.01;99902.04;126776;1089;101937;-78
2021/08/15 09:50:16;;;;;;;;;;;;;;;38.19;22.69;99902.77;126707;1090;103374;-79
2021/08/15 09:53:04;;;;;;;;;;;;;;;38.09;22.87;99890.57;126794;1088;102859;-79
2021/08/15 09:55:57;;;;;;;;;;;;;;;37.91;22.57;99892.59;126670;1088;102930;-79
2021/08/15 09:58:44;;;;;;;;;;;;;;;37.72;22.64;99889.97;126817;1089;102900;-79
2021/08/15 10:01:31;;;;;;;;;;;;;;;37.34;23.12;99881.33;126777;1089;101151;-79
2021/08/15 10:04:20;;;;;;;;;;;;;;;37.47;23.11;99884.68;126761;1087;102866;-79
2021/08/15 10:07:10;;;;;;;;;;;;;;;37.62;22.97;99884.23;126732;1087;102871;-79
2021/08/15 10:09:58;;;;;;;;;;;;;;;37.88;23.05;99879.42;126721;1090;102855;-79
2021/08/15 10:12:46;;;;;;;;;;;;;;;37.84;22.67;99876.35;126823;1090;102877;-79
2021/08/15 10:15:36;;;;;;;;;;;;;;;37.90;23.05;99880.88;126734;1089;102882;-79
2021/08/15 10:18:26;;;;;;;;;;;;;;;37.83;23.28;99879.31;126796;1090;102949;-79
2021/08/15 10:21:15;;;;;;;;;;;;;;;37.45;22.67;99866.94;126726;1088;102847;-79
2021/08/15 10:24:08;;;;;;;;;;;;;;;36.75;23.45;99880.23;126870;1090;102817;-79
2021/08/15 10:26:56;;;;;;;;;;;;;;;36.52;24.00;99868.19;126878;1090;102866;-79
2021/08/15 10:29:44;;;;;;;;;;;;;;;36.80;24.19;99864.91;126904;1090;102886;-79
2021/08/15 10:32:31;;;;;;;;;;;;;;;36.97;23.10;99859.67;126759;1089;103374;-80
2021/08/15 10:35:19;;;;;;;;;;;;;;;37.07;23.21;99859.13;126965;1090;103171;-80
2021/08/15 10:38:12;;;;;;;;;;;;;;;37.07;23.46;99857.23;126703;1090;102654;-80
2021/08/15 10:41:00;;;;;;;;;;;;;;;37.55;23.46;99845.44;126846;1087;102851;-80
2021/08/15 10:43:50;;;;;;;;;;;;;;;37.65;22.63;99839.39;126715;1087;102928;-78
2021/08/15 10:46:58;;;;;;;;;;;;;;;37.38;22.29;99833.59;126795;1088;102878;-79
2021/08/15 10:49:48;;;;;;;;;;;;;;;36.95;22.50;99839.22;126749;1087;102956;-79
2021/08/15 10:52:40;;;;;;;;;;;;;;;36.86;22.86;99841.45;126777;1087;102856;-79
2021/08/15 10:55:39;;;;;;;;;;;;;;;36.64;22.88;99832.94;126847;1090;101283;-79
2021/08/15 10:58:37;;;;;;;;;;;;;;;36.23;22.69;99837.14;126961;1089;105622;-80
2021/08/15 11:01:41;;;;;;;;;;;;;;;35.94;23.24;99838.73;126762;1088;102846;-79
2021/08/15 11:04:30;;;;;;;;;;;;;;;35.60;22.65;99828.38;126819;1087;102950;-78
2021/08/15 11:07:38;;;;;;;;;;;;;;;35.40;23.76;99840.23;126727;1088;102884;-79
2021/08/15 11:10:25;;;;;;;;;;;;;;;35.43;23.43;99834.36;126922;1090;102901;-79
2021/08/15 11:13:14;;;;;;;;;;;;;;;35.32;23.89;99829.61;127001;1090;102847;-79
2021/08/15 11:16:21;;;;;;;;;;;;;;;35.12;23.61;99824.33;126797;1090;102852;-79
2021/08/15 11:19:12;;;;;;;;;;;;;;;34.89;24.25;99815.95;126841;1089;102843;-79
2021/08/15 11:22:13;;;;;;;;;;;;;;;34.70;24.22;99820.40;126749;1089;102870;-79
2021/08/15 11:25:02;;;;;;;;;;;;;;;34.69;25.59;99823.33;126831;1087;101839;-80
2021/08/15 11:27:51;;;;;;;;;;;;;;;34.80;25.29;99818.03;126878;1089;102820;-80
2021/08/15 11:30:39;;;;;;;;;;;;;;;34.56;24.91;99821.50;126998;1089;102921;-80
2021/08/15 11:33:27;;;;;;;;;;;;;;;34.44;25.08;99810.50;126855;1090;102882;-79
2021/08/15 11:36:16;;;;;;;;;;;;;;;34.30;25.22;99813.47;126998;1090;103029;-80
2021/08/15 11:39:06;;;;;;;;;;;;;;;34.08;25.50;99807.48;126868;1087;102871;-80
2021/08/15 11:41:54;;;;;;;;;;;;;;;33.68;25.77;99812.11;126917;1089;102869;-79
2021/08/15 11:44:59;;;;;;;;;;;;;;;33.61;26.35;99806.72;126762;1088;102847;-79
2021/08/15 11:47:47;;;;;;;;;;;;;;;33.78;26.24;99804.41;126854;1090;103010;-80
2021/08/15 11:50:37;;;;;;;;;;;;;;;33.85;27.01;99805.25;126781;1090;102855;-80
2021/08/15 11:53:27;;;;;;;;;;;;;;;33.83;27.25;99801.90;126828;1089;102916;-80
2021/08/15 11:56:21;;;;;;;;;;;;;;;33.93;27.31;99813.13;126747;1090;102927;-80
2021/08/15 11:59:08;;;;;;;;;;;;;;;33.94;27.17;99810.24;126876;1089;102838;-79
2021/08/15 12:01:56;;;;;;;;;;;;;;;33.98;27.25;99807.11;126854;1089;102854;-80
2021/08/15 12:04:47;;;;;;;;;;;;;;;33.96;27.25;99804.61;126966;1090;100954;-80
2021/08/15 12:07:35;;;;;;;;;;;;;;;33.99;27.26;99801.48;126911;1090;102954;-80
2021/08/15 12:10:23;;;;;;;;;;;;;;;34.00;27.88;99792.31;126819;1088;102847;-80
2021/08/15 12:13:18;;;;;;;;;;;;;;;34.05;27.68;99800.63;126980;1088;102855;-80
2021/08/15 12:16:10;;;;;;;;;;;;;;;34.11;27.65;99794.38;126878;1090;102844;-79
2021/08/15 12:19:00;;;;;;;;;;;;;;;33.95;27.36;99805.66;126984;1090;102943;-79
2021/08/15 12:21:48;;;;;;;;;;;;;;;33.80;27.53;99789.63;126757;1087;102854;-80
2021/08/15 12:24:35;;;;;;;;;;;;;;;33.70;27.91;99799.20;127024;1090;102916;-79
2021/08/15 12:27:23;;;;;;;;;;;;;;;33.67;27.47;99813.98;126786;1088;103297;-79
2021/08/15 12:30:28;;;;;;;;;;;;;;;33.51;28.03;99809.00;126916;1089;103399;-80
2021/08/15 12:33:24;;;;;;;;;;;;;;;33.47;28.17;99803.19;126779;1087;102966;-79
2021/08/15 12:36:23;;;;;;;;;;;;;;;33.46;27.88;99800.69;126875;1088;102879;-80
2021/08/15 12:39:11;;;;;;;;;;;;;;;33.45;27.56;99802.56;126810;1090;102854;-80
2021/08/15 12:42:04;;;;;;;;;;;;;;;33.23;27.59;99798.38;126852;1088;102850;-80
2021/08/15 12:45:05;;;;;;;;;;;;;;;33.06;27.61;99806.05;126858;1090;102854;-80
2021/08/15 12:47:58;;;;;;;;;;;;;;;32.91;27.58;99805.39;126918;1089;103039;-80
2021/08/15 12:50:56;;;;;;;;;;;;;;;32.86;27.86;99807.88;126816;1090;102874;-80
2021/08/15 12:53:44;;;;;;;;;;;;;;;32.76;27.40;99800.13;126881;1090;102892;-80
2021/08/15 12:56:31;;;;;;;;;;;;;;;32.59;27.81;99793.42;126759;1090;103021;-80
2021/08/15 12:59:19;;;;;;;;;;;;;;;32.43;27.54;99797.31;126960;1090;102930;-80
2021/08/15 13:02:07;;;;;;;;;;;;;;;32.33;27.82;99799.57;126796;1088;102844;-80
2021/08/15 13:04:56;;;;;;;;;;;;;;;32.24;27.38;99789.94;126990;1087;103354;-80
2021/08/15 13:07:44;;;;;;;;;;;;;;;32.12;27.61;99781.56;126919;1087;102848;-80
2021/08/15 13:10:34;;;;;;;;;;;;;;;31.98;28.10;99787.95;126770;1090;102866;-80
2021/08/15 13:13:22;;;;;;;;;;;;;;;31.91;28.39;99784.36;126968;1088;103311;-80
2021/08/15 13:16:09;;;;;;;;;;;;;;;31.91;28.81;99782.49;126843;1087;102948;-80
2021/08/15 13:19:00;;;;;;;;;;;;;;;31.95;29.16;99788.31;126932;1089;102937;-80
2021/08/15 13:21:51;;;;;;;;;;;;;;;31.85;29.18;99781.44;126708;1090;102890;-80
2021/08/15 13:24:39;;;;;;;;;;;;;;;31.75;28.90;99791.73;126877;1088;102872;-80
2021/08/15 13:27:27;;;;;;;;;;;;;;;31.67;29.33;99791.86;126857;1090;102933;-80
2021/08/15 13:30:17;;;;;;;;;;;;;;;31.59;28.96;99791.99;126874;1090;102935;-80
2021/08/15 13:33:05;;;;;;;;;;;;;;;31.51;29.50;99789.45;126819;1090;102879;-80
2021/08/15 13:35:52;;;;;;;;;;;;;;;31.45;29.32;99792.94;126980;1090;103079;-80
2021/08/15 13:38:40;;;;;;;;;;;;;;;31.31;29.42;99794.69;126829;1090;102912;-80
2021/08/15 13:41:27;;;;;;;;;;;;;;;31.10;29.98;99791.98;126927;1089;102945;-80
2021/08/15 13:44:17;;;;;;;;;;;;;;;30.95;30.37;99795.56;126845;1087;102658;-80
2021/08/15 13:47:05;;;;;;;;;;;;;;;30.92;30.61;99789.73;126917;1088;102151;-80
2021/08/15 13:49:53;;;;;;;;;;;;;;;30.85;30.38;99797.73;126910;1090;101727;-80
2021/08/15 13:52:41;;;;;;;;;;;;;;;30.76;30.37;99792.67;126851;1089;102674;-80
2021/08/15 13:55:31;;;;;;;;;;;;;;;30.64;31.17;99781.55;126872;1090;102901;-80
2021/08/15 13:58:18;;;;;;;;;;;;;;;30.53;30.98;99780.18;126824;1090;102966;-80
2021/08/15 14:01:06;;;;;;;;;;;;;;;30.47;31.18;99780.91;126950;1087;102821;-80
2021/08/15 14:03:55;;;;;;;;;;;;;;;30.43;31.30;99785.02;126758;1089;102878;-79
2021/08/15 14:06:43;;;;;;;;;;;;;;;30.45;31.20;99780.27;126797;1088;102872;-79
2021/08/15 14:09:34;;;;;;;;;;;;;;;30.42;31.54;99786.03;126768;1087;102931;-79
2021/08/15 14:12:22;;;;;;;;;;;;;;;30.36;31.86;99787.63;126946;1090;102951;-80
2021/08/15 14:15:10;;;;;;;;;;;;;;;30.37;31.52;99778.54;126799;1087;100764;-80
2021/08/15 14:17:59;;;;;;;;;;;;;;;30.34;31.79;99778.05;126972;1090;102847;-80